Map

Track Data

SID SEASON NUMBER BASIN SUBBASIN NAME ISO_TIME NATURE LAT LON WMO_WIND WMO_PRES WMO_AGENCY TRACK_TYPE DIST2LAND LANDFALL IFLAG USA_AGENCY USA_ATCF_ID USA_LAT USA_LON USA_RECORD USA_STATUS USA_WIND USA_PRES USA_SSHS USA_R34_NE USA_R34_SE USA_R34_SW USA_R34_NW USA_R50_NE USA_R50_SE USA_R50_SW USA_R50_NW USA_R64_NE USA_R64_SE USA_R64_SW USA_R64_NW USA_POCI USA_ROCI USA_RMW USA_EYE TOKYO_LAT TOKYO_LON TOKYO_GRADE TOKYO_WIND TOKYO_PRES TOKYO_R50_DIR TOKYO_R50_LONG TOKYO_R50_SHORT TOKYO_R30_DIR TOKYO_R30_LONG TOKYO_R30_SHORT TOKYO_LAND CMA_LAT CMA_LON CMA_CAT CMA_WIND CMA_PRES HKO_LAT HKO_LON HKO_CAT HKO_WIND HKO_PRES NEWDELHI_LAT NEWDELHI_LON NEWDELHI_GRADE NEWDELHI_WIND NEWDELHI_PRES NEWDELHI_CI NEWDELHI_DP NEWDELHI_POCI REUNION_LAT REUNION_LON REUNION_TYPE REUNION_WIND REUNION_PRES REUNION_TNUM REUNION_CI REUNION_RMW REUNION_R34_NE REUNION_R34_SE REUNION_R34_SW REUNION_R34_NW REUNION_R50_NE REUNION_R50_SE REUNION_R50_SW REUNION_R50_NW REUNION_R64_NE REUNION_R64_SE REUNION_R64_SW REUNION_R64_NW BOM_LAT BOM_LON BOM_TYPE BOM_WIND BOM_PRES BOM_TNUM BOM_CI BOM_RMW BOM_R34_NE BOM_R34_SE BOM_R34_SW BOM_R34_NW BOM_R50_NE BOM_R50_SE BOM_R50_SW BOM_R50_NW BOM_R64_NE BOM_R64_SE BOM_R64_SW BOM_R64_NW BOM_ROCI BOM_POCI BOM_EYE BOM_POS_METHOD BOM_PRES_METHOD NADI_LAT NADI_LON NADI_CAT NADI_WIND NADI_PRES WELLINGTON_LAT WELLINGTON_LON WELLINGTON_WIND WELLINGTON_PRES DS824_LAT DS824_LON DS824_STAGE DS824_WIND DS824_PRES TD9636_LAT TD9636_LON TD9636_STAGE TD9636_WIND TD9636_PRES TD9635_LAT TD9635_LON TD9635_WIND TD9635_PRES TD9635_ROCI NEUMANN_LAT NEUMANN_LON NEUMANN_CLASS NEUMANN_WIND NEUMANN_PRES MLC_LAT MLC_LON MLC_CLASS MLC_WIND MLC_PRES USA_GUST BOM_GUST BOM_GUST_PER REUNION_GUST REUNION_GUST_PER USA_SEAHGT USA_SEARAD_NE USA_SEARAD_SE USA_SEARAD_SW USA_SEARAD_NW STORM_SPEED STORM_DIR
1978300N08334 1978 115 NA NA NOT_NAMED 1978-10-26 12:00:00 TS 8.00000 -26.0000 20 hurdat_atl main 1121 1121 O_____________ hurdat_atl AL221978 8.00000 -26.0000 TD 20 -1 10 270
1978300N08334 1978 115 NA NA NOT_NAMED 1978-10-26 15:00:00 TS 8.00012 -26.5000 main 1170 1170 P_____________ AL221978 8.00012 -26.5000 TD 20 -1 10 270
1978300N08334 1978 115 NA NA NOT_NAMED 1978-10-26 18:00:00 TS 8.00000 -27.0000 20 hurdat_atl main 1220 1220 O_____________ hurdat_atl AL221978 8.00000 -27.0000 TD 20 -1 10 270
1978300N08334 1978 115 NA NA NOT_NAMED 1978-10-26 21:00:00 TS 7.99994 -27.5000 main 1270 1270 P_____________ AL221978 7.99994 -27.5000 TD 22 -1 10 270
1978300N08334 1978 115 NA NA NOT_NAMED 1978-10-27 00:00:00 TS 8.00000 -28.0000 25 hurdat_atl main 1321 1321 O_____________ hurdat_atl AL221978 8.00000 -28.0000 TD 25 -1 10 270
1978300N08334 1978 115 NA NA NOT_NAMED 1978-10-27 03:00:00 TS 7.99994 -28.5000 main 1372 1372 P_____________ AL221978 7.99994 -28.5000 TD 25 -1 10 270
1978300N08334 1978 115 NA NA NOT_NAMED 1978-10-27 06:00:00 TS 8.00000 -29.0000 25 hurdat_atl main 1423 1423 O_____________ hurdat_atl AL221978 8.00000 -29.0000 TD 25 -1 10 270
1978300N08334 1978 115 NA NA NOT_NAMED 1978-10-27 09:00:00 TS 7.99988 -29.4850 main 1475 1475 P_____________ AL221978 7.99988 -29.4850 TD 25 -1 10 270
1978300N08334 1978 115 NA NA NOT_NAMED 1978-10-27 12:00:00 TS 8.00000 -30.0000 25 hurdat_atl main 1526 1526 O_____________ hurdat_atl AL221978 8.00000 -30.0000 TD 25 -1 11 270
1978300N08334 1978 115 NA NA NOT_NAMED 1978-10-27 15:00:00 TS 7.99994 -30.5775 main 1569 1537 P_____________ AL221978 7.99994 -30.5775 TD 25 -1 12 270
1978300N08334 1978 115 NA NA NOT_NAMED 1978-10-27 18:00:00 TS 8.00000 -31.2000 25 hurdat_atl main 1537 1500 O_____________ hurdat_atl AL221978 8.00000 -31.2000 TD 25 -1 13 270
1978300N08334 1978 115 NA NA NOT_NAMED 1978-10-27 21:00:00 TS 7.99997 -31.8500 main 1500 1458 P_____________ AL221978 7.99997 -31.8500 TD 25 -1 13 270
1978300N08334 1978 115 NA NA NOT_NAMED 1978-10-28 00:00:00 TS 8.00000 -32.5000 25 hurdat_atl main 1458 1426 O_____________ hurdat_atl AL221978 8.00000 -32.5000 TD 25 -1 12 270
1978300N08334 1978 115 NA NA NOT_NAMED 1978-10-28 03:00:00 TS 7.99985 -33.1000 main 1426 1395 P_____________ AL221978 7.99985 -33.1000 TD 25 -1 12 270
1978300N08334 1978 115 NA NA NOT_NAMED 1978-10-28 06:00:00 TS 8.00000 -33.7000 25 hurdat_atl main 1395 1365 O_____________ hurdat_atl AL221978 8.00000 -33.7000 TD 25 -1 13 269
1978300N08334 1978 115 NA NA NOT_NAMED 1978-10-28 09:00:00 TS 7.98509 -34.3800 main 1360 1332 P_____________ AL221978 7.98509 -34.3800 TD 25 -1 13 270
1978300N08334 1978 115 NA NA NOT_NAMED 1978-10-28 12:00:00 TS 8.00000 -35.0000 25 hurdat_atl main 1332 1319 O_____________ hurdat_atl AL221978 8.00000 -35.0000 TD 25 -1 11 275
1978300N08334 1978 115 NA NA NOT_NAMED 1978-10-28 15:00:00 TS 8.07735 -35.4450 main 1325 1314 P_____________ AL221978 8.07735 -35.4450 TD 22 -1 8 284
1978300N08334 1978 115 NA NA NOT_NAMED 1978-10-28 18:00:00 TS 8.20000 -35.8000 20 hurdat_atl main 1320 1317 O_____________ hurdat_atl AL221978 8.20000 -35.8000 TD 20 -1 8 291
1978300N08334 1978 115 NA NA NOT_NAMED 1978-10-28 21:00:00 TS 8.34995 -36.1575 main 1317 1317 P_____________ AL221978 8.34995 -36.1575 TD 20 -1 8 293
1978300N08334 1978 115 NA NA NOT_NAMED 1978-10-29 00:00:00 TS 8.50000 -36.5000 20 hurdat_atl main 1328 1322 O_____________ hurdat_atl AL221978 8.50000 -36.5000 TD 20 -1 7 290
1978300N08334 1978 115 NA NA NOT_NAMED 1978-10-29 03:00:00 TS 8.59995 -36.8426 main 1330 1325 P_____________ AL221978 8.59995 -36.8426 TD 20 -1 7 286
1978300N08334 1978 115 NA NA NOT_NAMED 1978-10-29 06:00:00 TS 8.70000 -37.2000 20 hurdat_atl main 1331 1329 O_____________ hurdat_atl AL221978 8.70000 -37.2000 TD 20 -1 8 288
1978300N08334 1978 115 NA NA NOT_NAMED 1978-10-29 09:00:00 TS 8.83761 -37.5899 main 1333 1333 P_____________ AL221978 8.83761 -37.5899 TD 20 -1 8 291
1978300N08334 1978 115 NA NA NOT_NAMED 1978-10-29 12:00:00 TS 9.00000 -38.0000 20 hurdat_atl main 1348 O_____________ hurdat_atl AL221978 9.00000 -38.0000 TD 20 -1 9 292

About IBTrACS Database

This database is a web-friendly format of International Best Track Archive for Climate Stewardship (IBTrACS), a global best track data archive curated by NOAA dating back to 1842.

Updated: 2021-10-25